Konstanz, Germany

3:24 AM CET on December 20, 2014 (GMT +0100)
Taegerwilen | Change Station
CLOSE
Current Station
Personal Weather Station
Location: Taegerwilen, THURGAU
Elevation: 1420 ft
Nearby Weather Stations

Elev 1420 ft 47.65 °N, 9.13 °E | Updated 4 minutes ago

Rain Showers
Showers Rain
47.1 °F
Feels Like 47 °F
N
1.7
Wind Variable Wind from WSW
Gusts 6.0 mph

Today
High -- | Low -- °F
--% Chance of Precip.
Yesterday
High -- | Low -- °F
Precip. -- in
8:08 AM 4:33 PM
Waning Crescent, 5% visible
Pressure 30.27 in
Visibility 3.7 miles
Clouds Few 1200 ft
Mostly Cloudy 2900 ft
Windchill 47 °F
Dew Point 46 °F
Humidity 95%
Rainfall 0.19 in
Snow Depth Not available.
UV 0.0 out of 12
Pollen Not available.
Air Quality Not available.
Flu Activity Not available.
METAR LSZR 200220Z AUTO VRB02KT 6000 SHRA FEW012 BKN029 09/08 Q1025

More Conditions Fewer Conditions

Pressure 30.27 in
Visibility 3.7 miles
Clouds Few 1200 ft
Mostly Cloudy 2900 ft
Windchill 47 °F
Dew Point 46 °F
Humidity 95%
Rainfall 0.19 in
Snow Depth Not available.
UV 0.0 out of 12
Pollen Not available.
Air Quality Not available.
Flu Activity Not available.
METAR LSZR 200220Z AUTO VRB02KT 6000 SHRA FEW012 BKN029 09/08 Q1025

More Conditions Fewer Conditions

10-Day Weather Forecast

Almanac

Astronomy

Dec. 20, 2014 Rise Set
Actual Time
Civil Twilight
Nautical Twilight
Astronomical Twilight
Moon
Length of Visible Light
Length of Day
Tomorrow will be .
, % of the Moon is Illuminated

Today's Extremes

Country Highs Country Lows

Community

WunderPhotos

Upload Photos

1,779,113 photos uploaded!

WunderBlogs® & News

Nearby

Air Quality

  Air Quality AQ Index Pollutant
Not available.

Snow Depth

Station Depth Elevation

Earthquake Activity

City Distance Mag. Time & Date
Minimum magnitude displayed is 2.5.

Coastal Water Temperatures

Place Temperature

Nearby Weather Stations